Terminal Aerodrome Forecast
Issued by NWS

Home | Current Version | Previous Version | Graphics & Text | Print | Product List | Glossary On
Versions: 1 2 3 4 5 6 7 8 9 10 11 12 13 14 15 16 17 18 19 20
000
FTUS43 KFGF 100532
TAFBJI
TAF
KBJI 100532Z 1006/1106 29006KT P6SM OVC025
     FM101100 32006KT P6SM OVC010
     FM101500 31005KT P6SM BKN035
     FM101600 31005KT P6SM BKN025
     FM102000 28005KT P6SM BKN035
     FM102300 25005KT P6SM OVC030
     FM110000 24005KT P6SM -SN OVC030
     FM110300 18004KT 1 1/2SM -SN OVC008
     FM110400 18005KT 2SM -SN OVC008=

USA.gov is the U.S. government's official web portal to all federal, state and local government web resources and services.